sensor_id;sensor_type;location;lat;lon;timestamp;pressure;altitude;pressure_sealevel;temperature;humidity
62946;BME280;52164;52.212;-1.010;2023-05-02T00:02:02;101383.70;;;10.13;69.66
62946;BME280;52164;52.212;-1.010;2023-05-02T00:04:27;101386.31;;;10.20;69.86
62946;BME280;52164;52.212;-1.010;2023-05-02T00:06:53;101387.70;;;10.29;69.91
62946;BME280;52164;52.212;-1.010;2023-05-02T00:09:18;101387.73;;;10.40;69.98
62946;BME280;52164;52.212;-1.010;2023-05-02T00:11:44;101388.58;;;10.50;70.08
62946;BME280;52164;52.212;-1.010;2023-05-02T00:14:09;101379.95;;;10.58;70.14
62946;BME280;52164;52.212;-1.010;2023-05-02T00:16:35;101378.08;;;10.64;70.12
62946;BME280;52164;52.212;-1.010;2023-05-02T00:19:00;101375.96;;;10.67;70.18
62946;BME280;52164;52.212;-1.010;2023-05-02T00:21:25;101380.25;;;10.68;70.08
62946;BME280;52164;52.212;-1.010;2023-05-02T00:23:53;101385.82;;;10.69;70.18
62946;BME280;52164;52.212;-1.010;2023-05-02T00:26:20;101384.05;;;10.72;70.50
62946;BME280;52164;52.212;-1.010;2023-05-02T00:28:46;101381.77;;;10.74;70.61
62946;BME280;52164;52.212;-1.010;2023-05-02T00:31:11;101379.13;;;10.79;70.72
62946;BME280;52164;52.212;-1.010;2023-05-02T00:33:36;101375.80;;;10.82;70.64
62946;BME280;52164;52.212;-1.010;2023-05-02T00:36:03;101373.69;;;10.84;70.61
62946;BME280;52164;52.212;-1.010;2023-05-02T00:38:29;101380.27;;;10.83;70.66
62946;BME280;52164;52.212;-1.010;2023-05-02T00:40:54;101385.77;;;10.81;70.29
62946;BME280;52164;52.212;-1.010;2023-05-02T00:43:19;101391.61;;;10.76;70.15
62946;BME280;52164;52.212;-1.010;2023-05-02T00:45:45;101396.01;;;10.70;69.94
62946;BME280;52164;52.212;-1.010;2023-05-02T00:48:11;101395.36;;;10.64;69.99
62946;BME280;52164;52.212;-1.010;2023-05-02T00:50:37;101395.29;;;10.57;70.02
62946;BME280;52164;52.212;-1.010;2023-05-02T00:53:04;101398.20;;;10.48;70.30
62946;BME280;52164;52.212;-1.010;2023-05-02T00:55:31;101396.83;;;10.41;70.37
62946;BME280;52164;52.212;-1.010;2023-05-02T00:57:58;101399.80;;;10.35;70.62
62946;BME280;52164;52.212;-1.010;2023-05-02T01:00:25;101404.55;;;10.32;70.79
62946;BME280;52164;52.212;-1.010;2023-05-02T01:02:56;101403.25;;;10.30;71.00
62946;BME280;52164;52.212;-1.010;2023-05-02T01:05:27;101409.14;;;10.30;71.04
62946;BME280;52164;52.212;-1.010;2023-05-02T01:07:59;101417.36;;;10.31;71.15
62946;BME280;52164;52.212;-1.010;2023-05-02T01:11:02;101424.73;;;10.33;71.29
62946;BME280;52164;52.212;-1.010;2023-05-02T01:13:16;101427.58;;;10.33;71.26
62946;BME280;52164;52.212;-1.010;2023-05-02T01:15:44;101435.27;;;10.34;71.24
62946;BME280;52164;52.212;-1.010;2023-05-02T01:18:11;101437.44;;;10.35;71.43
62946;BME280;52164;52.212;-1.010;2023-05-02T01:20:38;101439.59;;;10.36;71.17
62946;BME280;52164;52.212;-1.010;2023-05-02T01:23:09;101436.75;;;10.36;71.03
62946;BME280;52164;52.212;-1.010;2023-05-02T01:25:47;101435.51;;;10.37;71.28
62946;BME280;52164;52.212;-1.010;2023-05-02T01:28:20;101437.12;;;10.38;71.11
62946;BME280;52164;52.212;-1.010;2023-05-02T01:30:53;101436.58;;;10.38;71.26
62946;BME280;52164;52.212;-1.010;2023-05-02T01:33:20;101436.92;;;10.37;71.20
62946;BME280;52164;52.212;-1.010;2023-05-02T01:35:48;101437.61;;;10.36;71.16
62946;BME280;52164;52.212;-1.010;2023-05-02T01:38:16;101445.98;;;10.35;71.23
62946;BME280;52164;52.212;-1.010;2023-05-02T01:40:44;101444.73;;;10.33;71.51
62946;BME280;52164;52.212;-1.010;2023-05-02T01:43:12;101448.45;;;10.33;71.34
62946;BME280;52164;52.212;-1.010;2023-05-02T01:45:38;101449.52;;;10.33;71.48
62946;BME280;52164;52.212;-1.010;2023-05-02T01:48:05;101454.14;;;10.32;71.22
62946;BME280;52164;52.212;-1.010;2023-05-02T01:50:31;101453.06;;;10.33;71.48
62946;BME280;52164;52.212;-1.010;2023-05-02T01:52:58;101454.36;;;10.34;71.28
62946;BME280;52164;52.212;-1.010;2023-05-02T01:55:25;101455.48;;;10.37;71.12
62946;BME280;52164;52.212;-1.010;2023-05-02T01:57:52;101463.71;;;10.38;71.16
62946;BME280;52164;52.212;-1.010;2023-05-02T02:00:18;101467.86;;;10.41;71.29
62946;BME280;52164;52.212;-1.010;2023-05-02T02:02:45;101470.40;;;10.44;71.28
62946;BME280;52164;52.212;-1.010;2023-05-02T02:05:12;101470.09;;;10.47;71.12
62946;BME280;52164;52.212;-1.010;2023-05-02T02:07:38;101470.14;;;10.50;70.97
62946;BME280;52164;52.212;-1.010;2023-05-02T02:10:03;101475.73;;;10.53;70.90
62946;BME280;52164;52.212;-1.010;2023-05-02T02:12:30;101480.77;;;10.56;70.72
62946;BME280;52164;52.212;-1.010;2023-05-02T02:15:01;101486.16;;;10.58;70.64
62946;BME280;52164;52.212;-1.010;2023-05-02T02:17:45;101483.70;;;10.61;70.62
62946;BME280;52164;52.212;-1.010;2023-05-02T02:20:11;101489.83;;;10.64;70.55
62946;BME280;52164;52.212;-1.010;2023-05-02T02:22:38;101491.80;;;10.66;70.49
62946;BME280;52164;52.212;-1.010;2023-05-02T02:25:05;101494.31;;;10.67;70.56
62946;BME280;52164;52.212;-1.010;2023-05-02T02:27:31;101498.24;;;10.67;70.62
62946;BME280;52164;52.212;-1.010;2023-05-02T02:29:57;101501.45;;;10.67;70.40
62946;BME280;52164;52.212;-1.010;2023-05-02T02:32:22;101504.30;;;10.66;70.21
62946;BME280;52164;52.212;-1.010;2023-05-02T02:34:48;101505.71;;;10.65;70.55
62946;BME280;52164;52.212;-1.010;2023-05-02T02:37:15;101511.05;;;10.63;70.64
62946;BME280;52164;52.212;-1.010;2023-05-02T02:39:46;101515.31;;;10.62;70.90
62946;BME280;52164;52.212;-1.010;2023-05-02T02:42:15;101515.46;;;10.61;70.87
62946;BME280;52164;52.212;-1.010;2023-05-02T02:44:46;101515.64;;;10.60;70.79
62946;BME280;52164;52.212;-1.010;2023-05-02T02:47:22;101515.62;;;10.58;70.78
62946;BME280;52164;52.212;-1.010;2023-05-02T02:49:50;101513.62;;;10.56;71.10
62946;BME280;52164;52.212;-1.010;2023-05-02T02:53:24;101514.67;;;10.55;71.07
62946;BME280;52164;52.212;-1.010;2023-05-02T02:55:06;101518.72;;;10.52;70.92
62946;BME280;52164;52.212;-1.010;2023-05-02T03:00:01;101516.91;;;10.49;71.30
62946;BME280;52164;52.212;-1.010;2023-05-02T03:02:31;101515.98;;;10.49;71.42
62946;BME280;52164;52.212;-1.010;2023-05-02T03:04:57;101510.27;;;10.48;71.57
62946;BME280;52164;52.212;-1.010;2023-05-02T03:07:26;101506.52;;;10.48;71.39
62946;BME280;52164;52.212;-1.010;2023-05-02T03:09:51;101506.89;;;10.49;71.37
62946;BME280;52164;52.212;-1.010;2023-05-02T03:12:16;101504.94;;;10.49;71.19
62946;BME280;52164;52.212;-1.010;2023-05-02T03:14:42;101505.46;;;10.48;71.30
62946;BME280;52164;52.212;-1.010;2023-05-02T03:17:07;101509.02;;;10.48;71.22
62946;BME280;52164;52.212;-1.010;2023-05-02T03:19:33;101506.50;;;10.48;71.23
62946;BME280;52164;52.212;-1.010;2023-05-02T03:21:58;101508.64;;;10.46;71.03
62946;BME280;52164;52.212;-1.010;2023-05-02T03:24:24;101513.95;;;10.44;70.86
62946;BME280;52164;52.212;-1.010;2023-05-02T03:26:55;101514.11;;;10.43;70.74
62946;BME280;52164;52.212;-1.010;2023-05-02T03:29:20;101506.77;;;10.42;70.65
62946;BME280;52164;52.212;-1.010;2023-05-02T03:31:46;101507.48;;;10.41;70.57
62946;BME280;52164;52.212;-1.010;2023-05-02T03:34:11;101505.12;;;10.38;70.69
62946;BME280;52164;52.212;-1.010;2023-05-02T03:36:36;101504.89;;;10.36;70.52
62946;BME280;52164;52.212;-1.010;2023-05-02T03:39:01;101501.95;;;10.32;70.54
62946;BME280;52164;52.212;-1.010;2023-05-02T03:41:29;101506.69;;;10.28;70.61
62946;BME280;52164;52.212;-1.010;2023-05-02T03:43:54;101516.25;;;10.24;70.74
62946;BME280;52164;52.212;-1.010;2023-05-02T03:46:20;101519.75;;;10.19;70.74
62946;BME280;52164;52.212;-1.010;2023-05-02T03:48:45;101521.64;;;10.16;70.93
62946;BME280;52164;52.212;-1.010;2023-05-02T03:51:11;101522.98;;;10.11;71.18
62946;BME280;52164;52.212;-1.010;2023-05-02T03:53:36;101528.45;;;10.07;71.11
62946;BME280;52164;52.212;-1.010;2023-05-02T03:56:02;101530.88;;;10.04;71.21
62946;BME280;52164;52.212;-1.010;2023-05-02T03:58:27;101531.36;;;10.01;71.37
62946;BME280;52164;52.212;-1.010;2023-05-02T04:00:52;101538.27;;;9.98;71.35
62946;BME280;52164;52.212;-1.010;2023-05-02T04:03:18;101546.23;;;9.96;71.61
62946;BME280;52164;52.212;-1.010;2023-05-02T04:05:44;101549.23;;;9.94;71.74
62946;BME280;52164;52.212;-1.010;2023-05-02T04:08:10;101551.38;;;9.94;71.86
62946;BME280;52164;52.212;-1.010;2023-05-02T04:10:35;101553.89;;;9.95;71.97
62946;BME280;52164;52.212;-1.010;2023-05-02T04:13:01;101561.04;;;9.96;71.84
62946;BME280;52164;52.212;-1.010;2023-05-02T04:15:27;101566.24;;;9.97;71.87
62946;BME280;52164;52.212;-1.010;2023-05-02T04:17:53;101568.20;;;9.97;71.98
62946;BME280;52164;52.212;-1.010;2023-05-02T04:20:19;101563.02;;;9.97;71.88
62946;BME280;52164;52.212;-1.010;2023-05-02T04:22:44;101558.23;;;9.98;72.23
62946;BME280;52164;52.212;-1.010;2023-05-02T04:25:12;101557.36;;;9.99;72.31
62946;BME280;52164;52.212;-1.010;2023-05-02T04:27:37;101564.32;;;9.99;72.23
62946;BME280;52164;52.212;-1.010;2023-05-02T04:30:02;101564.82;;;9.97;72.44
62946;BME280;52164;52.212;-1.010;2023-05-02T04:32:28;101562.13;;;9.96;72.33
62946;BME280;52164;52.212;-1.010;2023-05-02T04:34:54;101562.46;;;9.96;72.45
62946;BME280;52164;52.212;-1.010;2023-05-02T04:37:19;101566.77;;;9.96;72.88
62946;BME280;52164;52.212;-1.010;2023-05-02T04:39:45;101566.75;;;9.96;72.92
62946;BME280;52164;52.212;-1.010;2023-05-02T04:42:11;101568.38;;;9.96;72.87
62946;BME280;52164;52.212;-1.010;2023-05-02T04:44:36;101568.02;;;9.97;72.99
62946;BME280;52164;52.212;-1.010;2023-05-02T04:47:01;101568.40;;;9.98;73.00
62946;BME280;52164;52.212;-1.010;2023-05-02T04:49:28;101570.02;;;9.99;73.05
62946;BME280;52164;52.212;-1.010;2023-05-02T04:51:53;101575.77;;;10.00;73.12
62946;BME280;52164;52.212;-1.010;2023-05-02T04:54:19;101573.27;;;10.01;73.13
62946;BME280;52164;52.212;-1.010;2023-05-02T04:56:44;101574.00;;;10.02;73.10
62946;BME280;52164;52.212;-1.010;2023-05-02T04:59:10;101574.91;;;10.02;73.06
62946;BME280;52164;52.212;-1.010;2023-05-02T05:01:35;101577.95;;;10.03;72.84
62946;BME280;52164;52.212;-1.010;2023-05-02T05:04:00;101580.80;;;10.03;72.89
62946;BME280;52164;52.212;-1.010;2023-05-02T05:06:25;101580.45;;;10.03;72.72
62946;BME280;52164;52.212;-1.010;2023-05-02T05:08:51;101578.66;;;10.03;72.56
62946;BME280;52164;52.212;-1.010;2023-05-02T05:11:16;101586.53;;;10.04;72.33
62946;BME280;52164;52.212;-1.010;2023-05-02T05:13:41;101588.38;;;10.08;72.21
62946;BME280;52164;52.212;-1.010;2023-05-02T05:16:07;101585.92;;;10.10;71.80
62946;BME280;52164;52.212;-1.010;2023-05-02T05:18:33;101589.17;;;10.12;71.85
62946;BME280;52164;52.212;-1.010;2023-05-02T05:21:06;101586.23;;;10.16;71.62
62946;BME280;52164;52.212;-1.010;2023-05-02T05:23:33;101587.71;;;10.20;71.59
62946;BME280;52164;52.212;-1.010;2023-05-02T05:26:07;101591.70;;;10.23;71.41
62946;BME280;52164;52.212;-1.010;2023-05-02T05:28:32;101594.98;;;10.27;71.39
62946;BME280;52164;52.212;-1.010;2023-05-02T05:30:57;101599.33;;;10.29;71.26
62946;BME280;52164;52.212;-1.010;2023-05-02T05:33:28;101600.11;;;10.33;71.33
62946;BME280;52164;52.212;-1.010;2023-05-02T05:35:53;101605.17;;;10.36;71.17
62946;BME280;52164;52.212;-1.010;2023-05-02T05:38:19;101604.33;;;10.38;71.10
62946;BME280;52164;52.212;-1.010;2023-05-02T05:40:44;101605.27;;;10.42;70.89
62946;BME280;52164;52.212;-1.010;2023-05-02T05:43:11;101613.34;;;10.43;71.04
62946;BME280;52164;52.212;-1.010;2023-05-02T05:45:36;101610.52;;;10.45;70.80
62946;BME280;52164;52.212;-1.010;2023-05-02T05:48:05;101610.36;;;10.46;70.62
62946;BME280;52164;52.212;-1.010;2023-05-02T05:50:31;101616.04;;;10.44;70.49
62946;BME280;52164;52.212;-1.010;2023-05-02T05:52:56;101624.23;;;10.44;70.40
62946;BME280;52164;52.212;-1.010;2023-05-02T05:55:21;101624.40;;;10.43;70.40
62946;BME280;52164;52.212;-1.010;2023-05-02T05:57:46;101629.91;;;10.42;70.36
62946;BME280;52164;52.212;-1.010;2023-05-02T06:00:12;101632.09;;;10.43;70.42
62946;BME280;52164;52.212;-1.010;2023-05-02T06:02:38;101631.95;;;10.46;70.23
62946;BME280;52164;52.212;-1.010;2023-05-02T06:05:04;101632.69;;;10.48;70.31
62946;BME280;52164;52.212;-1.010;2023-05-02T06:07:30;101631.85;;;10.50;70.38
62946;BME280;52164;52.212;-1.010;2023-05-02T06:09:55;101632.98;;;10.54;70.38
62946;BME280;52164;52.212;-1.010;2023-05-02T06:12:20;101637.11;;;10.55;70.31
62946;BME280;52164;52.212;-1.010;2023-05-02T06:14:45;101636.95;;;10.56;70.17
62946;BME280;52164;52.212;-1.010;2023-05-02T06:17:10;101640.20;;;10.58;70.12
62946;BME280;52164;52.212;-1.010;2023-05-02T06:19:36;101641.70;;;10.62;70.03
62946;BME280;52164;52.212;-1.010;2023-05-02T06:22:01;101643.88;;;10.64;70.07
62946;BME280;52164;52.212;-1.010;2023-05-02T06:24:27;101649.54;;;10.71;70.08
62946;BME280;52164;52.212;-1.010;2023-05-02T06:26:52;101649.98;;;10.76;70.06
62946;BME280;52164;52.212;-1.010;2023-05-02T06:29:17;101652.39;;;10.82;69.89
62946;BME280;52164;52.212;-1.010;2023-05-02T06:31:42;101652.69;;;10.88;69.81
62946;BME280;52164;52.212;-1.010;2023-05-02T06:34:08;101653.48;;;10.93;69.67
62946;BME280;52164;52.212;-1.010;2023-05-02T06:36:33;101657.81;;;10.96;69.61
62946;BME280;52164;52.212;-1.010;2023-05-02T06:38:58;101660.55;;;10.98;69.44
62946;BME280;52164;52.212;-1.010;2023-05-02T06:41:24;101660.02;;;11.00;69.37
62946;BME280;52164;52.212;-1.010;2023-05-02T06:43:51;101658.95;;;10.99;69.00
62946;BME280;52164;52.212;-1.010;2023-05-02T06:46:16;101657.19;;;11.01;68.83
62946;BME280;52164;52.212;-1.010;2023-05-02T06:48:45;101659.04;;;11.05;68.68
62946;BME280;52164;52.212;-1.010;2023-05-02T06:51:12;101657.41;;;11.14;68.65
62946;BME280;52164;52.212;-1.010;2023-05-02T06:53:38;101661.70;;;11.27;68.70
62946;BME280;52164;52.212;-1.010;2023-05-02T06:56:03;101668.38;;;11.42;68.61
62946;BME280;52164;52.212;-1.010;2023-05-02T06:58:30;101665.39;;;11.58;68.29
62946;BME280;52164;52.212;-1.010;2023-05-02T07:00:55;101666.69;;;11.74;68.37
62946;BME280;52164;52.212;-1.010;2023-05-02T07:03:21;101671.58;;;11.92;68.34
62946;BME280;52164;52.212;-1.010;2023-05-02T07:05:46;101671.40;;;12.05;67.58
62946;BME280;52164;52.212;-1.010;2023-05-02T07:08:12;101677.98;;;12.15;67.55
62946;BME280;52164;52.212;-1.010;2023-05-02T07:10:37;101678.10;;;12.25;67.17
62946;BME280;52164;52.212;-1.010;2023-05-02T07:13:02;101680.36;;;12.35;66.56
62946;BME280;52164;52.212;-1.010;2023-05-02T07:15:28;101682.23;;;12.43;66.14
62946;BME280;52164;52.212;-1.010;2023-05-02T07:17:53;101682.67;;;12.51;65.85
62946;BME280;52164;52.212;-1.010;2023-05-02T07:20:18;101687.59;;;12.58;65.51
62946;BME280;52164;52.212;-1.010;2023-05-02T07:22:47;101687.95;;;12.58;65.14
62946;BME280;52164;52.212;-1.010;2023-05-02T07:25:12;101689.40;;;12.60;65.09
62946;BME280;52164;52.212;-1.010;2023-05-02T07:27:38;101695.52;;;12.62;64.95
62946;BME280;52164;52.212;-1.010;2023-05-02T07:30:03;101700.01;;;12.63;64.78
62946;BME280;52164;52.212;-1.010;2023-05-02T07:32:29;101701.41;;;12.61;64.81
62946;BME280;52164;52.212;-1.010;2023-05-02T07:34:55;101696.02;;;12.60;64.62
62946;BME280;52164;52.212;-1.010;2023-05-02T07:37:21;101699.93;;;12.56;64.96
62946;BME280;52164;52.212;-1.010;2023-05-02T07:39:47;101700.08;;;12.52;64.82
62946;BME280;52164;52.212;-1.010;2023-05-02T07:42:13;101692.02;;;12.53;64.82
62946;BME280;52164;52.212;-1.010;2023-05-02T07:44:38;101696.35;;;12.56;64.78
62946;BME280;52164;52.212;-1.010;2023-05-02T07:47:03;101693.91;;;12.62;64.59
62946;BME280;52164;52.212;-1.010;2023-05-02T07:49:29;101695.59;;;12.70;64.50
62946;BME280;52164;52.212;-1.010;2023-05-02T07:51:55;101692.84;;;12.81;64.36
62946;BME280;52164;52.212;-1.010;2023-05-02T07:54:21;101692.59;;;12.92;63.85
62946;BME280;52164;52.212;-1.010;2023-05-02T07:56:47;101695.04;;;13.06;63.84
62946;BME280;52164;52.212;-1.010;2023-05-02T07:59:13;101693.93;;;13.23;63.58
62946;BME280;52164;52.212;-1.010;2023-05-02T08:01:38;101698.94;;;13.42;63.23
62946;BME280;52164;52.212;-1.010;2023-05-02T08:04:04;101699.41;;;13.58;62.64
62946;BME280;52164;52.212;-1.010;2023-05-02T08:06:29;101700.77;;;13.75;62.28
62946;BME280;52164;52.212;-1.010;2023-05-02T08:08:55;101705.00;;;13.92;61.51
62946;BME280;52164;52.212;-1.010;2023-05-02T08:11:20;101705.40;;;14.02;61.32
62946;BME280;52164;52.212;-1.010;2023-05-02T08:13:46;101707.23;;;14.10;61.23
62946;BME280;52164;52.212;-1.010;2023-05-02T08:16:12;101709.26;;;14.21;61.14
62946;BME280;52164;52.212;-1.010;2023-05-02T08:18:37;101714.33;;;14.33;60.90
62946;BME280;52164;52.212;-1.010;2023-05-02T08:21:03;101712.91;;;14.41;60.42
62946;BME280;52164;52.212;-1.010;2023-05-02T08:23:28;101708.98;;;14.47;60.28
62946;BME280;52164;52.212;-1.010;2023-05-02T08:25:53;101715.30;;;14.50;59.81
62946;BME280;52164;52.212;-1.010;2023-05-02T08:28:19;101716.36;;;14.50;59.33
62946;BME280;52164;52.212;-1.010;2023-05-02T08:30:44;101719.78;;;14.54;59.50
62946;BME280;52164;52.212;-1.010;2023-05-02T08:33:10;101720.55;;;14.62;59.43
62946;BME280;52164;52.212;-1.010;2023-05-02T08:35:35;101716.63;;;14.70;59.11
62946;BME280;52164;52.212;-1.010;2023-05-02T08:38:01;101719.34;;;14.80;58.93
62946;BME280;52164;52.212;-1.010;2023-05-02T08:40:26;101718.82;;;14.90;58.72
62946;BME280;52164;52.212;-1.010;2023-05-02T08:42:51;101716.67;;;14.99;58.43
62946;BME280;52164;52.212;-1.010;2023-05-02T08:45:21;101712.00;;;15.07;58.24
62946;BME280;52164;52.212;-1.010;2023-05-02T08:47:47;101717.40;;;15.16;58.25
62946;BME280;52164;52.212;-1.010;2023-05-02T08:50:14;101718.66;;;15.26;58.24
62946;BME280;52164;52.212;-1.010;2023-05-02T08:52:42;101719.73;;;15.38;58.03
62946;BME280;52164;52.212;-1.010;2023-05-02T08:55:10;101717.75;;;15.48;57.84
62946;BME280;52164;52.212;-1.010;2023-05-02T08:57:36;101713.59;;;15.55;57.13
62946;BME280;52164;52.212;-1.010;2023-05-02T09:00:03;101716.85;;;15.56;56.72
62946;BME280;52164;52.212;-1.010;2023-05-02T09:02:41;101724.38;;;15.62;56.61
62946;BME280;52164;52.212;-1.010;2023-05-02T09:05:10;101718.63;;;15.68;56.48
62946;BME280;52164;52.212;-1.010;2023-05-02T09:07:45;101714.66;;;15.74;56.40
62946;BME280;52164;52.212;-1.010;2023-05-02T09:10:11;101714.13;;;15.79;56.04
62946;BME280;52164;52.212;-1.010;2023-05-02T09:12:37;101720.41;;;15.90;56.08
62946;BME280;52164;52.212;-1.010;2023-05-02T09:15:10;101716.95;;;15.99;55.78
62946;BME280;52164;52.212;-1.010;2023-05-02T09:17:38;101708.48;;;16.00;55.43
62946;BME280;52164;52.212;-1.010;2023-05-02T09:20:04;101707.42;;;15.94;55.41
62946;BME280;52164;52.212;-1.010;2023-05-02T09:22:30;101703.11;;;15.90;55.69
62946;BME280;52164;52.212;-1.010;2023-05-02T09:24:56;101705.64;;;15.88;55.55
62946;BME280;52164;52.212;-1.010;2023-05-02T09:27:21;101704.57;;;15.88;55.83
62946;BME280;52164;52.212;-1.010;2023-05-02T09:29:46;101699.89;;;15.87;55.96
62946;BME280;52164;52.212;-1.010;2023-05-02T09:32:12;101693.95;;;15.73;56.19
62946;BME280;52164;52.212;-1.010;2023-05-02T09:34:37;101695.05;;;15.60;56.50
62946;BME280;52164;52.212;-1.010;2023-05-02T09:37:04;101704.06;;;15.59;56.84
62946;BME280;52164;52.212;-1.010;2023-05-02T09:39:30;101710.73;;;15.58;56.75
62946;BME280;52164;52.212;-1.010;2023-05-02T09:41:56;101711.42;;;15.62;56.74
62946;BME280;52164;52.212;-1.010;2023-05-02T09:44:23;101715.02;;;15.73;56.86
62946;BME280;52164;52.212;-1.010;2023-05-02T09:46:52;101718.45;;;15.83;56.74
62946;BME280;52164;52.212;-1.010;2023-05-02T09:49:18;101720.73;;;15.97;56.62
62946;BME280;52164;52.212;-1.010;2023-05-02T09:51:46;101725.37;;;16.14;56.25
62946;BME280;52164;52.212;-1.010;2023-05-02T09:54:13;101730.35;;;16.30;55.85
62946;BME280;52164;52.212;-1.010;2023-05-02T09:56:55;101732.27;;;16.42;55.34
62946;BME280;52164;52.212;-1.010;2023-05-02T09:59:21;101736.34;;;16.56;55.11
62946;BME280;52164;52.212;-1.010;2023-05-02T10:01:55;101737.20;;;16.66;54.98
62946;BME280;52164;52.212;-1.010;2023-05-02T10:04:21;101730.83;;;16.77;55.07
62946;BME280;52164;52.212;-1.010;2023-05-02T10:06:46;101739.03;;;16.96;54.80
62946;BME280;52164;52.212;-1.010;2023-05-02T10:09:13;101742.00;;;17.08;54.27
62946;BME280;52164;52.212;-1.010;2023-05-02T10:11:39;101744.63;;;17.18;53.88
62946;BME280;52164;52.212;-1.010;2023-05-02T10:14:07;101748.33;;;17.30;53.62
62946;BME280;52164;52.212;-1.010;2023-05-02T10:16:33;101752.75;;;17.40;53.36
62946;BME280;52164;52.212;-1.010;2023-05-02T10:19:02;101745.99;;;17.50;53.18
62946;BME280;52164;52.212;-1.010;2023-05-02T10:21:31;101743.93;;;17.58;52.98
62946;BME280;52164;52.212;-1.010;2023-05-02T10:23:58;101742.56;;;17.69;52.64
62946;BME280;52164;52.212;-1.010;2023-05-02T10:26:26;101746.24;;;17.80;52.28
62946;BME280;52164;52.212;-1.010;2023-05-02T10:28:51;101748.36;;;17.85;52.47
62946;BME280;52164;52.212;-1.010;2023-05-02T10:31:18;101745.08;;;17.89;52.18
62946;BME280;52164;52.212;-1.010;2023-05-02T10:33:43;101748.84;;;17.94;52.04
62946;BME280;52164;52.212;-1.010;2023-05-02T10:36:09;101748.73;;;18.04;51.95
62946;BME280;52164;52.212;-1.010;2023-05-02T10:38:37;101754.16;;;18.19;51.74
62946;BME280;52164;52.212;-1.010;2023-05-02T10:41:05;101754.48;;;18.36;50.82
62946;BME280;52164;52.212;-1.010;2023-05-02T10:43:34;101753.94;;;18.51;50.76
62946;BME280;52164;52.212;-1.010;2023-05-02T10:46:00;101756.21;;;18.70;50.71
62946;BME280;52164;52.212;-1.010;2023-05-02T10:48:32;101762.52;;;18.87;50.71
62946;BME280;52164;52.212;-1.010;2023-05-02T10:50:58;101755.45;;;18.99;49.94
62946;BME280;52164;52.212;-1.010;2023-05-02T10:53:28;101755.50;;;19.08;49.92
62946;BME280;52164;52.212;-1.010;2023-05-02T10:56:10;101755.21;;;19.16;50.15
62946;BME280;52164;52.212;-1.010;2023-05-02T10:58:36;101756.69;;;19.25;49.72
62946;BME280;52164;52.212;-1.010;2023-05-02T11:01:33;101757.48;;;19.33;49.64
62946;BME280;52164;52.212;-1.010;2023-05-02T11:04:03;101759.69;;;19.41;49.44
62946;BME280;52164;52.212;-1.010;2023-05-02T11:06:31;101758.07;;;19.50;49.06
62946;BME280;52164;52.212;-1.010;2023-05-02T11:09:30;101761.76;;;19.47;48.66
62946;BME280;52164;52.212;-1.010;2023-05-02T11:11:44;101767.09;;;19.32;48.99
62946;BME280;52164;52.212;-1.010;2023-05-02T11:14:09;101764.14;;;19.12;48.75
62946;BME280;52164;52.212;-1.010;2023-05-02T11:17:06;101761.83;;;19.09;49.02
62946;BME280;52164;52.212;-1.010;2023-05-02T11:19:20;101763.83;;;19.08;49.07
62946;BME280;52164;52.212;-1.010;2023-05-02T11:21:46;101763.84;;;19.08;49.16
62946;BME280;52164;52.212;-1.010;2023-05-02T11:24:43;101764.87;;;18.99;49.17
62946;BME280;52164;52.212;-1.010;2023-05-02T11:27:35;101764.59;;;18.94;49.41
62946;BME280;52164;52.212;-1.010;2023-05-02T11:29:57;101767.93;;;18.87;49.49
62946;BME280;52164;52.212;-1.010;2023-05-02T11:32:23;101773.52;;;18.73;49.70
62946;BME280;52164;52.212;-1.010;2023-05-02T11:34:49;101776.84;;;18.56;49.42
62946;BME280;52164;52.212;-1.010;2023-05-02T11:37:17;101777.84;;;18.33;49.98
62946;BME280;52164;52.212;-1.010;2023-05-02T11:39:42;101781.42;;;18.21;50.11
62946;BME280;52164;52.212;-1.010;2023-05-02T11:42:07;101782.30;;;18.07;50.44
62946;BME280;52164;52.212;-1.010;2023-05-02T11:44:33;101784.23;;;17.95;50.74
62946;BME280;52164;52.212;-1.010;2023-05-02T11:47:00;101788.27;;;17.86;51.08
62946;BME280;52164;52.212;-1.010;2023-05-02T11:49:26;101785.48;;;17.73;50.79
62946;BME280;52164;52.212;-1.010;2023-05-02T11:51:52;101787.94;;;17.63;50.92
62946;BME280;52164;52.212;-1.010;2023-05-02T11:54:21;101788.53;;;17.56;51.20
62946;BME280;52164;52.212;-1.010;2023-05-02T11:56:47;101797.95;;;17.53;51.82
62946;BME280;52164;52.212;-1.010;2023-05-02T11:59:12;101798.71;;;17.49;51.87
62946;BME280;52164;52.212;-1.010;2023-05-02T12:01:53;101804.45;;;17.52;52.27
62946;BME280;52164;52.212;-1.010;2023-05-02T12:04:19;101810.96;;;17.51;52.28
62946;BME280;52164;52.212;-1.010;2023-05-02T12:06:55;101811.16;;;17.50;52.21
62946;BME280;52164;52.212;-1.010;2023-05-02T12:09:21;101806.14;;;17.46;51.99
62946;BME280;52164;52.212;-1.010;2023-05-02T12:11:54;101801.50;;;17.38;52.04
62946;BME280;52164;52.212;-1.010;2023-05-02T12:14:35;101807.14;;;17.31;52.71
62946;BME280;52164;52.212;-1.010;2023-05-02T12:17:02;101809.30;;;17.30;52.68
62946;BME280;52164;52.212;-1.010;2023-05-02T12:19:27;101813.67;;;17.28;52.59
62946;BME280;52164;52.212;-1.010;2023-05-02T12:21:52;101805.04;;;17.23;52.47
62946;BME280;52164;52.212;-1.010;2023-05-02T12:24:18;101801.45;;;17.21;52.81
62946;BME280;52164;52.212;-1.010;2023-05-02T12:26:43;101797.48;;;17.20;52.59
62946;BME280;52164;52.212;-1.010;2023-05-02T12:29:09;101801.44;;;17.20;52.97
62946;BME280;52164;52.212;-1.010;2023-05-02T12:31:36;101803.43;;;17.20;53.24
62946;BME280;52164;52.212;-1.010;2023-05-02T12:34:02;101803.80;;;17.18;52.97
62946;BME280;52164;52.212;-1.010;2023-05-02T12:36:27;101803.11;;;17.13;52.82
62946;BME280;52164;52.212;-1.010;2023-05-02T12:38:53;101797.54;;;17.12;52.90
62946;BME280;52164;52.212;-1.010;2023-05-02T12:41:37;101798.83;;;17.08;52.96
62946;BME280;52164;52.212;-1.010;2023-05-02T12:44:04;101799.55;;;17.09;53.03